Atkinsons Mills, Pennsylvania
Current Conditions -  °F | °C
As of 3:35 AM on Saturday 22 Nov 2014 (Local Time) from KUNV Reporting Station
Clear Clear  
Wind Chill:   Ceiling: Unl
Heat Index: 15°   Visibility: 10mi
Dew Point:   Wind: 7mph
Humidity: 77%   Direction: 220°SW
Pressure: 30.42"   Gusts: NA
Location:  40.5138°N, 77.7384°W
Report Text: KUNV 220835Z AUTO 22006KT 10SM CLR M10/M13 A3042 RMK AO2 T10971130
Loading
Personal Weather Stations






























Interactive Weather Map New forecast layout! Learn more

10-Day Weather Forecast

Advertisements
Track Severe Weather on mobile